createdAt,value
2018-11-29T00:00:25.149Z,4.57
2018-11-29T00:02:53.591Z,4.70
2018-11-29T00:05:22.027Z,4.70
2018-11-29T00:07:50.514Z,4.70
2018-11-29T00:10:19.014Z,4.47
2018-11-29T00:12:47.475Z,4.60
2018-11-29T00:15:16.284Z,4.50
2018-11-29T00:17:44.737Z,4.50
2018-11-29T00:20:14.104Z,5.03
2018-11-29T00:22:43.204Z,5.47
2018-11-29T00:25:12.676Z,5.33
2018-11-29T00:27:41.143Z,4.63
2018-11-29T00:30:12.640Z,4.90
2018-11-29T00:32:41.067Z,5.20
2018-11-29T00:35:10.723Z,5.60
2018-11-29T00:37:39.171Z,4.87
2018-11-29T00:40:16.087Z,5.40
2018-11-29T00:42:44.647Z,5.77
2018-11-29T00:45:15.860Z,5.50
2018-11-29T00:47:44.877Z,5.57
2018-11-29T00:50:14.204Z,5.53
2018-11-29T00:52:43.513Z,4.57
2018-11-29T00:55:14.272Z,4.97
2018-11-29T00:57:42.699Z,4.43
2018-11-29T01:00:13.534Z,5.10
2018-11-29T01:02:42.108Z,4.70
2018-11-29T01:05:10.776Z,4.40
2018-11-29T01:07:39.780Z,4.67
2018-11-29T01:10:11.480Z,4.37
2018-11-29T01:12:39.971Z,4.70
2018-11-29T01:15:12.402Z,4.23
2018-11-29T01:17:40.942Z,4.60
2018-11-29T01:20:12.236Z,4.40
2018-11-29T01:22:40.688Z,3.93
2018-11-29T01:25:13.081Z,4.30
2018-11-29T01:27:42.148Z,3.90
2018-11-29T01:30:12.291Z,3.80
2018-11-29T01:32:40.808Z,4.03
2018-11-29T01:35:11.214Z,4.40
2018-11-29T01:37:39.646Z,4.43
2018-11-29T01:40:22.192Z,4.53
2018-11-29T01:42:53.771Z,5.33
2018-11-29T01:45:22.274Z,4.60
2018-11-29T01:47:50.736Z,4.77
2018-11-29T01:50:19.184Z,4.67
2018-11-29T01:52:47.704Z,5.23
2018-11-29T01:55:16.207Z,4.77
2018-11-29T01:57:44.729Z,5.50
2018-11-29T02:00:14.973Z,5.70
2018-11-29T02:02:44.045Z,5.47
2018-11-29T02:05:12.734Z,5.53
2018-11-29T02:07:41.147Z,5.17
2018-11-29T02:10:16.936Z,4.97
2018-11-29T02:12:45.576Z,5.40
2018-11-29T02:15:14.031Z,5.03
2018-11-29T02:17:42.571Z,5.13
2018-11-29T02:20:14.262Z,5.30
2018-11-29T02:22:42.740Z,5.47
2018-11-29T02:25:11.233Z,5.67
2018-11-29T02:27:39.822Z,5.10
2018-11-29T02:30:24.093Z,5.93
2018-11-29T02:32:52.761Z,5.40
2018-11-29T02:35:21.219Z,5.73
2018-11-29T02:37:49.650Z,5.80
2018-11-29T02:40:18.739Z,5.30
2018-11-29T02:42:48.217Z,5.73
2018-11-29T02:45:19.795Z,5.57
2018-11-29T02:47:48.343Z,5.77
2018-11-29T02:50:16.788Z,5.13
2018-11-29T02:52:45.221Z,5.70
2018-11-29T02:55:13.738Z,5.83
2018-11-29T02:57:42.529Z,5.67
2018-11-29T03:00:15.891Z,6.03
2018-11-29T03:02:44.483Z,5.17
2018-11-29T03:05:13.053Z,5.07
2018-11-29T03:07:41.553Z,4.93
2018-11-29T03:10:11.059Z,5.17
2018-11-29T03:12:39.514Z,5.30
2018-11-29T03:15:12.185Z,5.30
2018-11-29T03:17:40.656Z,5.43
2018-11-29T03:20:10.385Z,5.70
2018-11-29T03:22:38.813Z,6.00
2018-11-29T03:25:08.935Z,6.00
2018-11-29T03:27:37.349Z,6.73
2018-11-29T03:30:07.544Z,5.63
2018-11-29T03:32:36.025Z,6.40
2018-11-29T03:35:04.559Z,6.30
2018-11-29T03:37:32.974Z,5.73
2018-11-29T03:40:01.394Z,5.90
2018-11-29T03:42:29.854Z,4.97
2018-11-29T03:44:58.256Z,5.40
2018-11-29T03:50:01.265Z,5.40
2018-11-29T03:52:29.816Z,5.57
2018-11-29T03:54:58.314Z,4.83
2018-11-29T03:57:26.880Z,4.70
2018-11-29T03:59:55.358Z,4.73
2018-11-29T04:02:23.829Z,4.60
2018-11-29T04:04:52.216Z,4.90
2018-11-29T04:07:20.624Z,4.93
2018-11-29T04:09:49.049Z,4.50
2018-11-29T04:12:17.464Z,4.80
2018-11-29T04:14:45.900Z,5.27
2018-11-29T04:17:14.423Z,4.80
2018-11-29T04:19:42.853Z,4.60
2018-11-29T04:22:11.279Z,4.50
2018-11-29T04:24:39.689Z,4.67
2018-11-29T04:27:08.106Z,4.27
2018-11-29T04:29:36.517Z,4.43
2018-11-29T04:32:04.947Z,4.83
2018-11-29T04:34:33.347Z,4.10
2018-11-29T04:37:01.762Z,4.03
2018-11-29T04:39:30.184Z,3.97
2018-11-29T04:41:58.620Z,4.40
2018-11-29T04:44:27.054Z,3.93
2018-11-29T04:46:55.483Z,3.80
2018-11-29T04:49:23.995Z,3.70
2018-11-29T04:51:52.427Z,4.50
2018-11-29T04:54:20.843Z,3.83
2018-11-29T04:56:49.256Z,4.07
2018-11-29T04:59:17.671Z,3.87
2018-11-29T05:01:46.100Z,3.73
2018-11-29T05:04:14.623Z,3.80
2018-11-29T05:06:43.042Z,3.77
2018-11-29T05:09:11.446Z,3.90
2018-11-29T05:11:39.856Z,3.20
2018-11-29T05:14:08.247Z,3.60
2018-11-29T05:16:36.631Z,3.20
2018-11-29T05:19:05.099Z,3.20
2018-11-29T05:21:33.553Z,4.10
2018-11-29T05:24:02.082Z,3.13
2018-11-29T05:26:30.555Z,4.30
2018-11-29T05:28:59.005Z,3.57
2018-11-29T05:31:27.438Z,3.47
2018-11-29T05:33:55.847Z,3.80
2018-11-29T05:36:24.275Z,3.60
2018-11-29T05:38:52.710Z,3.90
2018-11-29T05:41:21.136Z,3.93
2018-11-29T05:43:49.570Z,3.97
2018-11-29T05:46:17.995Z,3.83
2018-11-29T05:48:46.503Z,3.80
2018-11-29T05:51:14.962Z,3.40
2018-11-29T05:53:43.479Z,3.50
2018-11-29T05:56:11.907Z,3.90
2018-11-29T05:58:40.422Z,3.27
2018-11-29T06:01:14.813Z,3.67
2018-11-29T06:03:43.323Z,3.83
2018-11-29T06:06:11.788Z,3.97
2018-11-29T06:08:40.224Z,3.57
2018-11-29T06:11:08.671Z,3.20
2018-11-29T06:13:37.178Z,2.97
2018-11-29T06:16:05.812Z,4.33
2018-11-29T06:18:36.178Z,3.63
2018-11-29T06:21:05.135Z,2.93
2018-11-29T06:23:33.548Z,3.13
2018-11-29T06:26:01.981Z,2.80
2018-11-29T06:28:30.430Z,3.20
2018-11-29T06:30:58.973Z,3.20
2018-11-29T06:33:27.405Z,3.73
2018-11-29T06:35:55.854Z,2.80
2018-11-29T06:38:24.273Z,3.27
2018-11-29T06:40:52.789Z,3.20
2018-11-29T06:43:21.222Z,3.10
2018-11-29T06:45:49.635Z,3.07
2018-11-29T06:48:18.072Z,3.03
2018-11-29T06:50:46.468Z,3.67
2018-11-29T06:53:20.223Z,3.40
2018-11-29T06:55:48.681Z,3.83
2018-11-29T06:58:17.092Z,4.13
2018-11-29T07:00:45.773Z,3.70
2018-11-29T07:03:14.191Z,3.60
2018-11-29T07:05:42.705Z,4.23
2018-11-29T07:08:11.245Z,3.87
2018-11-29T07:10:39.759Z,4.33
2018-11-29T07:13:08.244Z,4.17
2018-11-29T07:15:36.792Z,3.83
2018-11-29T07:18:05.324Z,3.60
2018-11-29T07:20:33.739Z,3.90
2018-11-29T07:23:02.167Z,3.87
2018-11-29T07:25:30.631Z,3.47
2018-11-29T07:27:59.091Z,3.33
2018-11-29T07:30:27.559Z,3.77
2018-11-29T07:32:56.082Z,3.57
2018-11-29T07:35:24.553Z,3.70
2018-11-29T07:37:53.031Z,4.60
2018-11-29T07:40:21.522Z,3.90
2018-11-29T07:42:52.553Z,4.10
2018-11-29T07:45:21.707Z,4.43
2018-11-29T07:47:50.191Z,4.80
2018-11-29T07:50:23.331Z,4.47
2018-11-29T07:52:51.779Z,4.50
2018-11-29T07:55:21.240Z,4.60
2018-11-29T07:57:51.026Z,4.80
2018-11-29T08:00:19.477Z,4.93
2018-11-29T08:02:48.038Z,4.80
2018-11-29T08:05:16.687Z,5.23
2018-11-29T08:07:47.661Z,4.23
2018-11-29T08:10:16.034Z,4.67
2018-11-29T08:12:44.515Z,4.73
2018-11-29T08:15:17.268Z,4.73
2018-11-29T08:17:45.809Z,4.60
2018-11-29T08:20:16.266Z,5.13
2018-11-29T08:22:44.692Z,5.70
2018-11-29T08:25:13.231Z,5.27
2018-11-29T08:27:41.782Z,5.50
2018-11-29T08:30:13.537Z,5.07
2018-11-29T08:32:42.026Z,5.13
2018-11-29T08:35:12.471Z,5.07
2018-11-29T08:37:42.022Z,5.17
2018-11-29T08:40:16.549Z,6.23
2018-11-29T08:42:44.961Z,6.03
2018-11-29T08:45:13.478Z,5.80
2018-11-29T08:47:41.911Z,5.27
2018-11-29T08:50:11.487Z,5.80
2018-11-29T08:52:40.555Z,6.33
2018-11-29T08:55:17.139Z,6.57
2018-11-29T08:57:46.067Z,6.87
2018-11-29T09:00:17.413Z,5.93
2018-11-29T09:02:45.897Z,6.27
2018-11-29T09:05:14.538Z,5.97
2018-11-29T09:07:43.855Z,6.00
2018-11-29T09:10:13.455Z,6.57
2018-11-29T09:12:41.916Z,7.10
2018-11-29T09:15:11.574Z,6.40
2018-11-29T09:17:40.115Z,5.70
2018-11-29T09:20:12.627Z,5.97
2018-11-29T09:22:41.267Z,5.67
2018-11-29T09:25:11.810Z,5.90
2018-11-29T09:27:40.298Z,5.47
2018-11-29T09:30:13.611Z,5.50
2018-11-29T09:32:42.837Z,4.80
2018-11-29T09:35:11.397Z,4.93
2018-11-29T09:37:39.883Z,4.77
2018-11-29T09:40:10.400Z,4.30
2018-11-29T09:42:39.529Z,5.13
2018-11-29T09:45:11.492Z,4.77
2018-11-29T09:47:39.935Z,4.43
2018-11-29T09:50:11.728Z,5.23
2018-11-29T09:52:40.485Z,4.27
2018-11-29T09:55:11.187Z,4.70
2018-11-29T09:57:39.662Z,4.73
2018-11-29T10:00:16.507Z,4.87
2018-11-29T10:02:50.856Z,4.27
2018-11-29T10:05:19.610Z,4.43
2018-11-29T10:07:48.056Z,5.20
2018-11-29T10:10:16.733Z,5.33
2018-11-29T10:12:46.151Z,5.27
2018-11-29T10:15:14.671Z,5.03
2018-11-29T10:17:43.136Z,4.23
2018-11-29T10:20:12.531Z,4.10
2018-11-29T10:22:42.270Z,4.40
2018-11-29T10:25:12.065Z,5.53
2018-11-29T10:27:41.138Z,5.20
2018-11-29T10:30:17.882Z,5.23
2018-11-29T10:32:46.293Z,5.47
2018-11-29T10:35:14.767Z,5.30
2018-11-29T10:37:43.220Z,4.97
2018-11-29T10:40:11.725Z,4.70
2018-11-29T10:42:40.188Z,4.10
2018-11-29T10:45:11.585Z,5.10
2018-11-29T10:47:40.521Z,5.17
2018-11-29T10:50:10.663Z,5.07
2018-11-29T10:52:39.092Z,4.93
2018-11-29T10:55:12.585Z,4.47
2018-11-29T10:57:41.126Z,5.30
2018-11-29T11:00:31.681Z,4.10
2018-11-29T11:03:06.607Z,4.40
2018-11-29T11:05:35.215Z,4.63
2018-11-29T11:08:08.178Z,4.67
2018-11-29T11:10:32.300Z,4.17
2018-11-29T11:13:00.831Z,4.23
2018-11-29T11:15:29.339Z,4.53
2018-11-29T11:17:57.783Z,3.70
2018-11-29T11:20:26.224Z,4.27
2018-11-29T11:22:54.764Z,4.23
2018-11-29T11:25:23.231Z,4.60
2018-11-29T11:27:51.736Z,4.33
2018-11-29T11:30:21.183Z,5.10
2018-11-29T11:32:50.857Z,5.00
2018-11-29T11:35:19.330Z,5.33
2018-11-29T11:37:47.809Z,4.63
2018-11-29T11:40:17.127Z,4.77
2018-11-29T11:42:46.490Z,4.50
2018-11-29T11:45:17.001Z,4.70
2018-11-29T11:47:45.520Z,5.00
2018-11-29T11:50:15.346Z,4.47
2018-11-29T11:52:43.760Z,4.57
2018-11-29T11:55:18.690Z,4.33
2018-11-29T11:57:41.910Z,4.60
2018-11-29T12:00:19.533Z,4.80
2018-11-29T12:02:49.479Z,4.43
2018-11-29T12:05:17.972Z,4.80
2018-11-29T12:07:46.381Z,4.80
2018-11-29T12:10:15.683Z,4.57
2018-11-29T12:12:44.176Z,3.83
2018-11-29T12:15:14.552Z,4.00
2018-11-29T12:17:44.040Z,4.17
2018-11-29T12:20:14.449Z,4.07
2018-11-29T12:22:42.851Z,4.23
2018-11-29T12:25:20.272Z,4.43
2018-11-29T12:27:48.835Z,4.20
2018-11-29T12:30:25.313Z,4.17
2018-11-29T12:32:55.443Z,3.83
2018-11-29T12:35:23.901Z,4.20
2018-11-29T12:37:53.238Z,4.40
2018-11-29T12:40:20.971Z,4.50
2018-11-29T12:42:49.509Z,4.13
2018-11-29T12:45:18.030Z,4.53
2018-11-29T12:47:46.631Z,4.23
2018-11-29T12:50:17.090Z,4.30
2018-11-29T12:52:45.607Z,4.87
2018-11-29T12:55:14.986Z,4.77
2018-11-29T12:57:43.538Z,3.97
2018-11-29T13:00:14.951Z,4.50
2018-11-29T13:02:45.571Z,3.80
2018-11-29T13:05:14.067Z,3.50
2018-11-29T13:07:43.422Z,3.87
2018-11-29T13:10:11.624Z,3.70
2018-11-29T13:12:40.033Z,3.73
2018-11-29T13:15:12.252Z,3.53
2018-11-29T13:17:40.644Z,3.83
2018-11-29T13:20:10.907Z,4.03
2018-11-29T13:22:39.387Z,4.00
2018-11-29T13:25:11.533Z,3.60
2018-11-29T13:27:41.201Z,4.00
2018-11-29T13:30:15.770Z,4.07
2018-11-29T13:32:44.551Z,3.90
2018-11-29T13:35:16.730Z,3.83
2018-11-29T13:37:51.483Z,4.07
2018-11-29T13:40:20.014Z,3.80
2018-11-29T13:42:48.504Z,4.40
2018-11-29T13:45:17.072Z,4.10
2018-11-29T13:47:45.572Z,3.70
2018-11-29T13:50:16.927Z,4.37
2018-11-29T13:52:45.794Z,3.90
2018-11-29T13:55:15.270Z,3.70
2018-11-29T13:57:45.008Z,4.10
2018-11-29T14:00:17.530Z,3.87
2018-11-29T14:02:47.314Z,4.17
2018-11-29T14:05:15.825Z,4.23
2018-11-29T14:07:44.341Z,4.13
2018-11-29T14:10:14.178Z,3.77
2018-11-29T14:12:42.772Z,3.13
2018-11-29T14:15:13.706Z,4.13
2018-11-29T14:17:42.151Z,2.90
2018-11-29T14:20:11.731Z,3.37
2018-11-29T14:22:40.245Z,3.43
2018-11-29T14:25:11.999Z,3.23
2018-11-29T14:27:41.054Z,3.53
2018-11-29T14:30:11.996Z,3.73
2018-11-29T14:32:40.432Z,3.40
2018-11-29T14:35:08.909Z,3.30
2018-11-29T14:37:37.336Z,4.30
2018-11-29T14:40:11.170Z,3.20
2018-11-29T14:42:40.198Z,3.50
2018-11-29T14:45:11.665Z,3.70
2018-11-29T14:47:40.112Z,3.20
2018-11-29T14:50:11.346Z,3.07
2018-11-29T14:52:39.793Z,3.20
2018-11-29T14:55:10.033Z,3.10
2018-11-29T14:57:38.626Z,3.33
2018-11-29T15:00:12.595Z,3.70
2018-11-29T15:02:41.172Z,3.57
2018-11-29T15:05:14.281Z,3.60
2018-11-29T15:07:42.710Z,3.30
2018-11-29T15:10:11.181Z,3.93
2018-11-29T15:12:39.629Z,3.70
2018-11-29T15:15:10.311Z,3.73
2018-11-29T15:17:39.531Z,3.27
2018-11-29T15:20:13.547Z,3.50
2018-11-29T15:22:42.096Z,3.90
2018-11-29T15:25:10.657Z,3.93
2018-11-29T15:27:39.145Z,3.57
2018-11-29T15:30:11.178Z,3.77
2018-11-29T15:32:39.612Z,3.60
2018-11-29T15:35:08.678Z,4.40
2018-11-29T15:37:37.170Z,4.40
2018-11-29T15:40:10.926Z,3.63
2018-11-29T15:42:39.335Z,3.80
2018-11-29T15:45:10.443Z,3.90
2018-11-29T15:47:38.899Z,3.73
2018-11-29T15:50:09.661Z,3.90
2018-11-29T15:52:38.147Z,3.43
2018-11-29T15:55:08.832Z,4.20
2018-11-29T15:57:37.268Z,4.17
2018-11-29T16:00:09.665Z,4.40
2018-11-29T16:02:38.146Z,4.47
2018-11-29T16:05:07.098Z,4.00
2018-11-29T16:07:35.509Z,3.27
2018-11-29T16:10:04.663Z,5.07
2018-11-29T16:12:33.274Z,4.10
2018-11-29T16:15:01.730Z,4.13
2018-11-29T16:17:30.164Z,4.57
2018-11-29T16:19:58.590Z,4.77
2018-11-29T16:22:27.029Z,4.00
2018-11-29T16:24:55.548Z,3.57
2018-11-29T16:27:24.043Z,3.77
2018-11-29T16:29:52.481Z,3.43
2018-11-29T16:32:21.224Z,3.77
2018-11-29T16:34:49.672Z,3.80
2018-11-29T16:37:18.166Z,3.80
2018-11-29T16:39:46.595Z,3.80
2018-11-29T16:42:15.154Z,4.37
2018-11-29T16:44:43.607Z,3.80
2018-11-29T16:47:12.045Z,3.93
2018-11-29T16:49:40.526Z,4.20
2018-11-29T16:52:08.984Z,4.57
2018-11-29T16:54:37.664Z,3.90
2018-11-29T16:57:07.155Z,4.40
2018-11-29T16:59:35.667Z,3.90
2018-11-29T17:02:06.028Z,4.00
2018-11-29T17:04:34.477Z,4.27
2018-11-29T17:07:02.906Z,3.80
2018-11-29T17:09:31.420Z,3.60
2018-11-29T17:12:00.369Z,4.23
2018-11-29T17:14:28.657Z,3.53
2018-11-29T17:16:57.403Z,4.03
2018-11-29T17:19:25.966Z,3.63
2018-11-29T17:21:54.401Z,3.23
2018-11-29T17:24:23.230Z,4.30
2018-11-29T17:26:51.671Z,3.83
2018-11-29T17:29:20.119Z,3.97
2018-11-29T17:31:48.535Z,4.00
2018-11-29T17:34:16.995Z,3.67
2018-11-29T17:36:46.206Z,4.03
2018-11-29T17:39:14.835Z,4.03
2018-11-29T17:41:43.319Z,4.90
2018-11-29T17:44:11.880Z,4.13
2018-11-29T17:46:40.478Z,4.10
2018-11-29T17:49:21.269Z,4.77
2018-11-29T17:51:53.741Z,4.67
2018-11-29T17:54:18.799Z,4.80
2018-11-29T17:56:50.581Z,4.30
2018-11-29T17:59:19.381Z,4.40
2018-11-29T18:01:47.892Z,4.33
2018-11-29T18:04:16.337Z,4.37
2018-11-29T18:06:44.785Z,4.60
2018-11-29T18:09:13.239Z,4.33
2018-11-29T18:11:41.846Z,3.83
2018-11-29T18:14:10.608Z,3.80
2018-11-29T18:16:39.822Z,5.07
2018-11-29T18:19:13.177Z,4.23
2018-11-29T18:21:41.270Z,4.83
2018-11-29T18:24:09.860Z,3.93
2018-11-29T18:26:38.294Z,4.63
2018-11-29T18:29:06.782Z,4.40
2018-11-29T18:31:35.251Z,4.30
2018-11-29T18:34:03.744Z,4.17
2018-11-29T18:36:32.182Z,4.07
2018-11-29T18:39:00.649Z,4.83
2018-11-29T18:41:29.077Z,4.83
2018-11-29T18:43:57.687Z,4.87
2018-11-29T18:46:26.138Z,4.43
2018-11-29T18:48:54.686Z,4.70
2018-11-29T18:51:23.244Z,5.30
2018-11-29T18:53:51.750Z,4.40
2018-11-29T18:56:20.217Z,4.90
2018-11-29T18:58:48.648Z,4.97
2018-11-29T19:01:17.120Z,5.07
2018-11-29T19:03:45.598Z,5.17
2018-11-29T19:06:14.051Z,5.17
2018-11-29T19:08:42.522Z,5.70
2018-11-29T19:11:11.014Z,4.97
2018-11-29T19:13:39.506Z,5.30
2018-11-29T19:16:07.915Z,5.00
2018-11-29T19:18:36.382Z,5.37
2018-11-29T19:21:04.840Z,4.53
2018-11-29T19:23:33.280Z,5.40
2018-11-29T19:26:01.698Z,4.70
2018-11-29T19:28:30.228Z,5.40
2018-11-29T19:30:58.680Z,5.40
2018-11-29T19:33:27.923Z,5.70
2018-11-29T19:35:56.413Z,5.77
2018-11-29T19:38:24.911Z,6.03
2018-11-29T19:40:53.375Z,6.00
2018-11-29T19:43:21.887Z,5.50
2018-11-29T19:45:50.347Z,5.20
2018-11-29T19:48:18.848Z,5.50
2018-11-29T19:50:47.347Z,5.97
2018-11-29T19:53:19.161Z,6.30
2018-11-29T19:55:48.356Z,5.87
2018-11-29T19:58:16.916Z,5.40
2018-11-29T20:00:45.388Z,6.10
2018-11-29T20:03:13.865Z,6.13
2018-11-29T20:05:42.296Z,6.20
2018-11-29T20:08:10.838Z,6.17
2018-11-29T20:10:39.350Z,6.17
2018-11-29T20:13:12.104Z,5.87
2018-11-29T20:15:44.921Z,6.97
2018-11-29T20:18:14.124Z,5.97
2018-11-29T20:20:42.669Z,6.20
2018-11-29T20:23:11.903Z,5.60
2018-11-29T20:25:41.577Z,6.20
2018-11-29T20:28:10.014Z,6.17
2018-11-29T20:30:38.460Z,5.60
2018-11-29T20:33:07.039Z,5.90
2018-11-29T20:35:35.523Z,5.83
2018-11-29T20:38:04.004Z,6.50
2018-11-29T20:40:34.112Z,5.27
2018-11-29T20:43:02.624Z,6.57
2018-11-29T20:45:32.710Z,6.23
2018-11-29T20:48:01.786Z,5.43
2018-11-29T20:50:30.330Z,5.97
2018-11-29T20:52:59.657Z,5.70
2018-11-29T20:55:29.463Z,6.67
2018-11-29T20:57:58.032Z,6.07
2018-11-29T21:00:26.540Z,6.30
2018-11-29T21:02:55.012Z,5.93
2018-11-29T21:05:24.378Z,6.40
2018-11-29T21:07:55.258Z,5.60
2018-11-29T21:10:24.734Z,5.63
2018-11-29T21:12:53.212Z,6.47
2018-11-29T21:15:21.789Z,6.23
2018-11-29T21:17:50.235Z,5.90
2018-11-29T21:20:19.812Z,6.17
2018-11-29T21:22:49.503Z,6.67
2018-11-29T21:25:22.278Z,6.33
2018-11-29T21:27:50.831Z,5.77
2018-11-29T21:30:19.310Z,6.47
2018-11-29T21:32:48.028Z,6.30
2018-11-29T21:35:18.778Z,5.97
2018-11-29T21:37:47.223Z,5.57
2018-11-29T21:40:19.313Z,5.47
2018-11-29T21:42:47.807Z,5.53
2018-11-29T21:45:17.191Z,5.40
2018-11-29T21:47:45.637Z,6.03
2018-11-29T21:50:14.123Z,6.87
2018-11-29T21:52:42.557Z,5.67
2018-11-29T21:55:10.991Z,5.83
2018-11-29T21:57:39.438Z,5.10
2018-11-29T22:00:11.753Z,6.27
2018-11-29T22:02:41.827Z,5.63
2018-11-29T22:05:10.124Z,6.33
2018-11-29T22:07:38.571Z,6.03
2018-11-29T22:10:07.047Z,6.47
2018-11-29T22:12:35.476Z,6.40
2018-11-29T22:15:04.403Z,5.90
2018-11-29T22:17:32.808Z,6.37
2018-11-29T22:20:01.275Z,7.07
2018-11-29T22:22:29.743Z,6.43
2018-11-29T22:24:58.172Z,6.33
2018-11-29T22:27:26.581Z,6.20
2018-11-29T22:29:55.013Z,6.50
2018-11-29T22:32:23.430Z,6.20
2018-11-29T22:34:51.867Z,6.40
2018-11-29T22:37:20.290Z,7.47
2018-11-29T22:39:48.710Z,5.87
2018-11-29T22:42:17.286Z,7.40
2018-11-29T22:44:45.685Z,6.40
2018-11-29T22:47:14.113Z,5.80
2018-11-29T22:49:42.562Z,5.80
2018-11-29T22:52:11.060Z,6.40
2018-11-29T22:54:39.472Z,5.67
2018-11-29T22:57:07.917Z,6.30
2018-11-29T22:59:36.342Z,5.43
2018-11-29T23:02:05.300Z,5.20
2018-11-29T23:04:33.714Z,5.77
2018-11-29T23:07:02.121Z,6.13
2018-11-29T23:09:30.589Z,6.20
2018-11-29T23:11:59.007Z,6.03
2018-11-29T23:14:27.432Z,5.73
2018-11-29T23:16:55.866Z,5.80
2018-11-29T23:19:24.312Z,6.37
2018-11-29T23:21:52.743Z,6.70
2018-11-29T23:24:21.153Z,6.33
2018-11-29T23:26:49.612Z,5.97
2018-11-29T23:29:18.013Z,6.17
2018-11-29T23:31:46.422Z,5.63
2018-11-29T23:34:14.839Z,6.73
2018-11-29T23:36:43.313Z,5.60
2018-11-29T23:39:11.707Z,5.90
2018-11-29T23:41:40.148Z,6.60
2018-11-29T23:44:08.571Z,5.70
2018-11-29T23:46:36.974Z,6.53
2018-11-29T23:49:05.607Z,5.07
2018-11-29T23:51:34.068Z,6.20
2018-11-29T23:54:02.507Z,5.63
2018-11-29T23:56:30.915Z,5.30
2018-11-29T23:59:03.048Z,5.60
